Terminal Aerodrome Forecast
Issued by NWS Sioux Falls, SD

Home | Current Version | Previous Version | Graphics & Text | Print | Product List | Glossary On
Versions: 1 2 3 4 5 6 7 8 9 10 11 12 13 14 15 16 17
000
FTUS43 KFSD 182348
TAFSUX
TAF
KSUX 182348Z 1900/1924 16009KT P6SM FEW250
     FM190500 17009KT P6SM BKN250
     FM190900 16007KT 5SM BR OVC015
     FM191100 16007KT 5SM BR OVC008
     FM191500 16008KT 2SM BR OVC005
     FM192000 15008KT 3SM BR OVC010=

USA.gov is the U.S. government's official web portal to all federal, state and local government web resources and services.